createdAt,value
2022-09-16T00:01:50.103Z,94345.72
2022-09-16T00:04:18.333Z,94344.94
2022-09-16T00:06:46.179Z,94333.97
2022-09-16T00:09:13.916Z,94324.38
2022-09-16T00:11:41.641Z,94327.09
2022-09-16T00:14:09.297Z,94325.25
2022-09-16T00:16:37.057Z,94320.59
2022-09-16T00:19:06.144Z,94309.06
2022-09-16T00:21:33.867Z,94317.84
2022-09-16T00:24:01.635Z,94325.53
2022-09-16T00:26:29.898Z,94328.78
2022-09-16T00:28:57.760Z,94330.97
2022-09-16T00:31:25.495Z,94333.41
2022-09-16T00:33:53.208Z,94318.91
2022-09-16T00:36:22.285Z,94323.81
2022-09-16T00:38:52.161Z,94320.84
2022-09-16T00:41:21.733Z,94318.66
2022-09-16T00:43:52.372Z,94319.22
2022-09-16T00:46:22.791Z,94317.81
2022-09-16T00:48:50.955Z,94309.31
2022-09-16T00:51:21.029Z,94310.69
2022-09-16T00:53:56.911Z,94314.56
2022-09-16T00:56:27.058Z,94319.22
2022-09-16T00:59:02.156Z,94318.38
2022-09-16T01:01:30.948Z,94321.94
2022-09-16T01:04:01.522Z,94330.19
2022-09-16T01:06:29.495Z,94326.13
2022-09-16T01:08:58.741Z,94322.84
2022-09-16T01:11:26.841Z,94313.25
2022-09-16T01:13:54.950Z,94316.25
2022-09-16T01:16:26.654Z,94309.16
2022-09-16T01:18:59.697Z,94300.72
2022-09-16T01:21:35.943Z,94301.59
2022-09-16T01:24:30.091Z,94304.56
2022-09-16T01:27:36.489Z,94308.94
2022-09-16T01:30:21.455Z,94308.66
2022-09-16T01:33:04.853Z,94319.34
2022-09-16T01:35:51.577Z,94321.78
2022-09-16T01:38:27.895Z,94315.22
2022-09-16T01:40:59.409Z,94315.22
2022-09-16T01:43:32.422Z,94312.50
2022-09-16T01:46:04.294Z,94306.78
2022-09-16T01:48:36.220Z,94308.16
2022-09-16T01:51:08.473Z,94311.47
2022-09-16T01:53:36.421Z,94308.22
2022-09-16T01:56:07.378Z,94320.50
2022-09-16T01:58:40.269Z,94315.84
2022-09-16T02:01:10.869Z,94314.22
2022-09-16T02:03:42.155Z,94321.06
2022-09-16T02:06:11.206Z,94325.44
2022-09-16T02:08:43.384Z,94316.94
2022-09-16T02:11:12.022Z,94318.00
2022-09-16T02:13:40.931Z,94311.75
2022-09-16T02:16:12.707Z,94306.81
2022-09-16T02:18:43.183Z,94310.09
2022-09-16T02:21:14.592Z,94325.38
2022-09-16T02:23:44.615Z,94329.78
2022-09-16T02:26:14.747Z,94325.63
2022-09-16T02:28:43.850Z,94326.47
2022-09-16T02:31:13.527Z,94327.28
2022-09-16T02:33:46.272Z,94326.19
2022-09-16T02:36:15.592Z,94320.44
2022-09-16T02:38:45.646Z,94324.53
2022-09-16T02:41:14.954Z,94323.44
2022-09-16T02:43:42.915Z,94316.88
2022-09-16T02:46:13.774Z,94319.59
2022-09-16T02:48:50.143Z,94314.41
2022-09-16T02:51:27.366Z,94314.13
2022-09-16T02:53:58.183Z,94308.66
2022-09-16T02:56:30.881Z,94309.50
2022-09-16T02:58:58.811Z,94313.06
2022-09-16T03:01:27.273Z,94309.50
2022-09-16T03:03:57.167Z,94314.13
2022-09-16T03:06:49.570Z,94308.94
2022-09-16T03:09:19.098Z,94305.16
2022-09-16T03:12:23.970Z,94304.63
2022-09-16T03:15:14.659Z,94293.13
2022-09-16T03:17:52.209Z,94302.19
2022-09-16T03:20:24.101Z,94297.56
2022-09-16T03:22:58.181Z,94298.91
2022-09-16T03:25:35.232Z,94298.91
2022-09-16T03:28:07.886Z,94290.16
2022-09-16T03:30:39.791Z,94289.88
2022-09-16T03:33:11.623Z,94278.94
2022-09-16T03:35:43.717Z,94292.38
2022-09-16T03:38:12.689Z,94283.34
2022-09-16T03:40:41.596Z,94292.91
2022-09-16T03:43:13.082Z,94284.16
2022-09-16T03:45:42.703Z,94285.78
2022-09-16T03:48:10.877Z,94295.34
2022-09-16T03:50:38.752Z,94278.13
2022-09-16T03:53:06.369Z,94279.50
2022-09-16T03:55:35.358Z,94283.06
2022-09-16T03:58:03.162Z,94284.19
2022-09-16T04:00:30.969Z,94282.00
2022-09-16T04:03:00.215Z,94278.75
2022-09-16T04:05:28.351Z,94284.50
2022-09-16T04:07:56.266Z,94280.91
2022-09-16T04:10:24.105Z,94276.28
2022-09-16T04:12:57.883Z,94285.81
2022-09-16T04:15:25.755Z,94286.66
2022-09-16T04:17:53.658Z,94285.03
2022-09-16T04:20:21.368Z,94292.94
2022-09-16T04:22:49.364Z,94283.09
2022-09-16T04:25:17.115Z,94291.84
2022-09-16T04:27:44.806Z,94289.69
2022-09-16T04:30:24.468Z,94291.56
2022-09-16T04:32:54.496Z,94292.38
2022-09-16T04:35:22.360Z,94297.31
2022-09-16T04:37:50.339Z,94300.28
2022-09-16T04:40:18.208Z,94303.03
2022-09-16T04:42:50.309Z,94297.56
2022-09-16T04:45:19.667Z,94299.16
2022-09-16T04:47:47.521Z,94296.19
2022-09-16T04:50:15.401Z,94299.44
2022-09-16T04:52:43.161Z,94299.16
2022-09-16T04:55:10.872Z,94296.72
2022-09-16T04:57:38.610Z,94298.13
2022-09-16T05:00:07.336Z,94298.91
2022-09-16T05:02:36.379Z,94299.75
2022-09-16T05:05:04.245Z,94298.38
2022-09-16T05:07:31.987Z,94293.44
2022-09-16T05:09:59.733Z,94291.56
2022-09-16T05:12:27.503Z,94305.22
2022-09-16T05:14:55.281Z,94300.56
2022-09-16T05:17:46.527Z,94290.44
2022-09-16T05:20:12.308Z,94293.97
2022-09-16T05:22:40.081Z,94286.91
2022-09-16T05:25:08.460Z,94287.97
2022-09-16T05:27:36.229Z,94279.50
2022-09-16T05:30:03.998Z,94275.41
2022-09-16T05:32:31.657Z,94279.75
2022-09-16T05:34:59.412Z,94273.19
2022-09-16T05:37:28.494Z,94283.34
2022-09-16T05:39:57.160Z,94284.94
2022-09-16T05:42:25.126Z,94284.69
2022-09-16T05:44:52.897Z,94281.69
2022-09-16T05:47:20.602Z,94281.69
2022-09-16T05:49:48.298Z,94284.69
2022-09-16T05:52:16.015Z,94283.06
2022-09-16T05:54:45.284Z,94285.50
2022-09-16T05:57:14.503Z,94286.31
2022-09-16T05:59:42.304Z,94283.84
2022-09-16T06:02:12.359Z,94283.56
2022-09-16T06:04:40.071Z,94286.00
2022-09-16T06:07:07.934Z,94293.66
2022-09-16T06:09:35.683Z,94284.59
2022-09-16T06:12:05.206Z,94294.16
2022-09-16T06:14:32.974Z,94292.22
2022-09-16T06:17:00.784Z,94293.59
2022-09-16T06:19:28.532Z,94287.84
2022-09-16T06:21:56.259Z,94282.91
2022-09-16T06:24:24.242Z,94293.28
2022-09-16T06:26:51.953Z,94281.22
2022-09-16T06:29:21.100Z,94281.78
2022-09-16T06:31:48.834Z,94285.56
2022-09-16T06:34:18.674Z,94282.84
2022-09-16T06:36:46.938Z,94271.34
2022-09-16T06:39:16.558Z,94276.25
2022-09-16T06:41:44.744Z,94277.84
2022-09-16T06:44:12.623Z,94288.00
2022-09-16T06:46:41.829Z,94285.25
2022-09-16T06:49:11.107Z,94279.78
2022-09-16T06:51:39.088Z,94266.34
2022-09-16T06:54:09.127Z,94278.94
2022-09-16T06:56:39.370Z,94275.94
2022-09-16T06:59:07.961Z,94279.44
2022-09-16T07:01:36.568Z,94270.69
2022-09-16T07:04:07.482Z,94267.97
2022-09-16T07:07:08.797Z,94260.81
2022-09-16T07:09:24.531Z,94259.66
2022-09-16T07:11:52.390Z,94270.28
2022-09-16T07:14:20.233Z,94265.06
2022-09-16T07:16:48.049Z,94270.00
2022-09-16T07:19:17.407Z,94273.28
2022-09-16T07:21:45.060Z,94274.88
2022-09-16T07:24:14.303Z,94268.53
2022-09-16T07:26:43.034Z,94272.63
2022-09-16T07:29:12.867Z,94273.16
2022-09-16T07:31:40.901Z,94281.38
2022-09-16T07:34:10.838Z,94273.41
2022-09-16T07:36:43.215Z,94268.75
2022-09-16T07:39:11.658Z,94267.69
2022-09-16T07:41:40.823Z,94270.50
2022-09-16T07:44:09.880Z,94269.63
2022-09-16T07:46:38.193Z,94273.97
2022-09-16T07:49:08.038Z,94272.56
2022-09-16T07:51:36.043Z,94263.25
2022-09-16T07:54:11.960Z,94258.84
2022-09-16T07:56:40.788Z,94261.22
2022-09-16T07:59:14.304Z,94264.75
2022-09-16T08:01:45.272Z,94271.34
2022-09-16T08:04:13.761Z,94275.78
2022-09-16T08:06:41.643Z,94274.13
2022-09-16T08:09:36.795Z,94273.56
2022-09-16T08:11:58.853Z,94269.13
2022-09-16T08:14:27.067Z,94278.34
2022-09-16T08:16:54.866Z,94277.31
2022-09-16T08:19:23.378Z,94273.38
2022-09-16T08:21:51.277Z,94281.25
2022-09-16T08:24:20.420Z,94281.53
2022-09-16T08:26:48.183Z,94280.91
2022-09-16T08:29:16.428Z,94277.03
2022-09-16T08:31:44.498Z,94273.19
2022-09-16T08:34:12.267Z,94283.53
2022-09-16T08:36:40.237Z,94280.50
2022-09-16T08:39:07.972Z,94278.06
2022-09-16T08:41:51.669Z,94267.50
2022-09-16T08:44:28.693Z,94262.91
2022-09-16T08:46:58.936Z,94277.13
2022-09-16T08:49:33.709Z,94273.81
2022-09-16T08:52:04.800Z,94282.28
2022-09-16T08:54:35.426Z,94274.84
2022-09-16T08:57:06.294Z,94280.84
2022-09-16T08:59:37.146Z,94273.75
2022-09-16T09:02:21.072Z,94273.88
2022-09-16T09:04:49.471Z,94275.06
2022-09-16T09:07:24.915Z,94274.53
2022-09-16T09:10:00.621Z,94280.50
2022-09-16T09:12:37.218Z,94277.72
2022-09-16T09:15:14.298Z,94273.28
2022-09-16T09:17:55.175Z,94275.16
2022-09-16T09:20:34.836Z,94268.00
2022-09-16T09:23:10.850Z,94267.94
2022-09-16T09:25:43.367Z,94259.47
2022-09-16T09:28:24.596Z,94264.69
2022-09-16T09:30:58.383Z,94258.34
2022-09-16T09:33:46.165Z,94252.31
2022-09-16T09:36:29.839Z,94253.88
2022-09-16T09:39:11.136Z,94254.63
2022-09-16T09:41:41.476Z,94253.81
2022-09-16T09:44:33.750Z,94255.78
2022-09-16T09:47:04.215Z,94251.38
2022-09-16T09:49:35.212Z,94249.22
2022-09-16T09:52:09.294Z,94247.81
2022-09-16T09:54:37.982Z,94248.63
2022-09-16T09:57:09.790Z,94250.56
2022-09-16T09:59:46.626Z,94246.69
2022-09-16T10:02:17.053Z,94243.94
2022-09-16T10:04:45.483Z,94242.41
2022-09-16T10:07:15.544Z,94247.63
2022-09-16T10:09:50.884Z,94249.84
2022-09-16T10:12:29.060Z,94245.78
2022-09-16T10:15:00.575Z,94241.97
2022-09-16T10:17:31.997Z,94241.16
2022-09-16T10:20:01.622Z,94248.03
2022-09-16T10:22:30.737Z,94242.31
2022-09-16T10:25:00.529Z,94237.75
2022-09-16T10:27:30.282Z,94234.44
2022-09-16T10:30:08.086Z,94235.84
2022-09-16T10:32:46.859Z,94225.41
2022-09-16T10:35:19.095Z,94228.69
2022-09-16T10:37:48.418Z,94230.84
2022-09-16T10:40:18.563Z,94227.00
2022-09-16T10:42:48.537Z,94221.22
2022-09-16T10:45:24.013Z,94220.69
2022-09-16T10:47:55.351Z,94211.38
2022-09-16T10:50:23.111Z,94210.78
2022-09-16T10:52:51.319Z,94210.03
2022-09-16T10:55:28.807Z,94209.25
2022-09-16T10:58:08.343Z,94210.25
2022-09-16T11:00:45.848Z,94197.66
2022-09-16T11:03:37.778Z,94195.03
2022-09-16T11:06:17.813Z,94187.41
2022-09-16T11:08:57.049Z,94188.88
2022-09-16T11:11:43.907Z,94181.91
2022-09-16T11:14:19.283Z,94184.16
2022-09-16T11:17:01.102Z,94193.03
2022-09-16T11:19:35.471Z,94189.78
2022-09-16T11:22:14.115Z,94212.72
2022-09-16T11:25:10.196Z,94241.50
2022-09-16T11:27:46.013Z,94243.72
2022-09-16T11:30:15.474Z,94254.13
2022-09-16T11:33:20.409Z,94254.38
2022-09-16T11:36:06.054Z,94255.97
2022-09-16T11:38:43.740Z,94260.31
2022-09-16T11:41:17.903Z,94284.63
2022-09-16T11:44:04.342Z,94275.69
2022-09-16T11:46:36.798Z,94280.00
2022-09-16T11:49:20.217Z,94269.38
2022-09-16T11:51:58.692Z,94280.41
2022-09-16T11:54:38.237Z,94277.16
2022-09-16T11:57:13.179Z,94287.22
2022-09-16T11:59:46.999Z,94298.38
2022-09-16T12:02:19.147Z,94299.72
2022-09-16T12:04:49.397Z,94307.63
2022-09-16T12:09:58.060Z,94308.94
2022-09-16T12:12:32.897Z,94312.00
2022-09-16T12:15:05.871Z,94311.81
2022-09-16T12:17:35.442Z,94316.69
2022-09-16T12:20:08.759Z,94316.19
2022-09-16T12:22:43.593Z,94320.75
2022-09-16T12:25:14.952Z,94315.91
2022-09-16T12:27:46.006Z,94305.31
2022-09-16T12:30:18.218Z,94309.66
2022-09-16T12:32:51.910Z,94319.69
2022-09-16T12:35:26.084Z,94318.56
2022-09-16T12:37:59.261Z,94324.09
2022-09-16T12:40:29.058Z,94329.03
2022-09-16T12:43:19.067Z,94331.50
2022-09-16T12:46:07.891Z,94329.63
2022-09-16T12:48:57.875Z,94331.28
2022-09-16T12:51:38.126Z,94327.53
2022-09-16T12:54:32.108Z,94336.25
2022-09-16T12:57:21.205Z,94344.31
2022-09-16T13:00:00.318Z,94338.25
2022-09-16T13:02:31.814Z,94333.59
2022-09-16T13:05:02.419Z,94323.31
2022-09-16T13:07:34.798Z,94332.53
2022-09-16T13:10:05.138Z,94330.38
2022-09-16T13:12:44.395Z,94325.97
2022-09-16T13:15:27.153Z,94316.75
2022-09-16T13:17:55.572Z,94325.81
2022-09-16T13:20:28.473Z,94323.91
2022-09-16T13:23:05.269Z,94325.25
2022-09-16T13:25:35.845Z,94318.16
2022-09-16T13:28:05.400Z,94330.66
2022-09-16T13:30:35.897Z,94324.16
2022-09-16T13:33:27.965Z,94321.97
2022-09-16T13:36:29.769Z,94342.19
2022-09-16T13:39:00.320Z,94341.31
2022-09-16T13:41:34.162Z,94348.16
2022-09-16T13:44:03.000Z,94355.28
2022-09-16T13:46:34.719Z,94359.88
2022-09-16T13:49:14.024Z,94365.56
2022-09-16T13:51:45.120Z,94359.31
2022-09-16T13:54:30.184Z,94372.16
2022-09-16T13:57:18.493Z,94370.25
2022-09-16T13:59:59.269Z,94381.41
2022-09-16T14:02:36.494Z,94389.88
2022-09-16T14:05:24.466Z,94387.50
2022-09-16T14:15:17.280Z,94380.19
2022-09-16T14:17:51.405Z,94379.94
2022-09-16T14:20:22.741Z,94370.94
2022-09-16T14:23:01.848Z,94366.84
2022-09-16T14:25:32.800Z,94360.28
2022-09-16T14:28:21.804Z,94361.66
2022-09-16T14:30:53.753Z,94364.66
2022-09-16T14:33:27.435Z,94359.75
2022-09-16T14:35:57.614Z,94371.47
2022-09-16T14:38:44.977Z,94369.59
2022-09-16T14:41:22.906Z,94365.19
2022-09-16T14:43:54.340Z,94370.13
2022-09-16T14:46:22.322Z,94368.75
2022-09-16T14:48:51.924Z,94368.47
2022-09-16T14:52:00.341Z,94375.31
2022-09-16T15:10:53.017Z,94378.84
2022-09-16T15:13:26.903Z,94376.13
2022-09-16T15:15:57.386Z,94380.78
2022-09-16T15:18:29.719Z,94384.31
2022-09-16T15:21:07.886Z,94379.94
2022-09-16T15:23:37.495Z,94381.56
2022-09-16T15:26:21.981Z,94375.03
2022-09-16T15:28:57.767Z,94372.03
2022-09-16T15:31:36.770Z,94369.00
2022-09-16T15:34:07.905Z,94377.50
2022-09-16T15:36:41.195Z,94365.19
2022-09-16T15:39:24.324Z,94362.47
2022-09-16T15:42:10.830Z,94355.38
2022-09-16T15:44:40.845Z,94352.63
2022-09-16T15:47:25.706Z,94361.09
2022-09-16T15:49:57.087Z,94364.09
2022-09-16T15:53:30.760Z,94361.91
2022-09-16T15:56:04.570Z,94361.34
2022-09-16T15:58:44.309Z,94341.44
2022-09-16T16:01:16.101Z,94345.78
2022-09-16T16:03:54.188Z,94346.88
2022-09-16T16:06:47.236Z,94361.88
2022-09-16T16:09:36.994Z,94366.53
2022-09-16T16:12:10.581Z,94358.88
2022-09-16T16:14:41.663Z,94352.63
2022-09-16T16:17:13.519Z,94350.16
2022-09-16T16:19:42.311Z,94358.03
2022-09-16T16:22:10.096Z,94352.84
2022-09-16T16:24:39.903Z,94363.19
2022-09-16T16:27:08.535Z,94360.41
2022-09-16T16:29:36.191Z,94363.97
2022-09-16T16:32:07.569Z,94359.06
2022-09-16T16:34:36.644Z,94357.97
2022-09-16T16:37:05.113Z,94358.25
2022-09-16T16:39:32.933Z,94357.69
2022-09-16T16:42:00.637Z,94361.22
2022-09-16T16:44:28.338Z,94371.59
2022-09-16T16:46:56.895Z,94359.88
2022-09-16T16:49:25.945Z,94359.88
2022-09-16T16:51:54.977Z,94367.75
2022-09-16T16:54:23.090Z,94370.47
2022-09-16T16:56:51.282Z,94366.63
2022-09-16T16:59:19.341Z,94358.44
2022-09-16T17:01:49.073Z,94359.56
2022-09-16T17:04:17.104Z,94357.91
2022-09-16T17:06:46.651Z,94365.25
2022-09-16T17:09:16.064Z,94355.97
2022-09-16T17:11:52.090Z,94356.53
2022-09-16T17:14:19.954Z,94361.41
2022-09-16T17:16:48.377Z,94357.59
2022-09-16T17:19:17.287Z,94358.41
2022-09-16T17:21:47.019Z,94353.22
2022-09-16T17:25:06.798Z,94350.75
2022-09-16T17:27:34.525Z,94349.44
2022-09-16T17:30:02.238Z,94346.16
2022-09-16T17:32:29.914Z,94343.97
2022-09-16T17:34:57.568Z,94352.94
2022-09-16T17:37:26.580Z,94349.69
2022-09-16T17:39:54.288Z,94342.56
2022-09-16T17:42:22.008Z,94352.41
2022-09-16T17:44:49.683Z,94350.47
2022-09-16T17:47:17.318Z,94340.97
2022-09-16T17:49:44.944Z,94332.25
2022-09-16T17:52:12.655Z,94335.53
2022-09-16T17:54:42.048Z,94344.22
2022-09-16T17:57:09.843Z,94340.44
2022-09-16T17:59:37.503Z,94337.13
2022-09-16T18:02:05.262Z,94338.25
2022-09-16T18:04:32.964Z,94341.25
2022-09-16T18:07:00.665Z,94335.53
2022-09-16T18:09:28.326Z,94335.53
2022-09-16T18:11:58.412Z,94331.69
2022-09-16T18:14:26.132Z,94336.06
2022-09-16T18:16:53.850Z,94346.69
2022-09-16T18:19:21.601Z,94350.22
2022-09-16T18:21:49.242Z,94348.88
2022-09-16T18:24:17.047Z,94347.50
2022-09-16T18:26:45.071Z,94347.22
2022-09-16T18:29:14.803Z,94356.47
2022-09-16T18:31:45.305Z,94361.66
2022-09-16T18:34:13.606Z,94362.78
2022-09-16T18:36:41.701Z,94364.13
2022-09-16T18:39:14.249Z,94365.53
2022-09-16T18:41:43.283Z,94362.78
2022-09-16T18:44:15.857Z,94351.38
2022-09-16T18:46:44.132Z,94357.63
2022-09-16T18:49:13.646Z,94345.91
2022-09-16T18:51:42.985Z,94351.88
2022-09-16T18:54:15.162Z,94357.34
2022-09-16T18:56:43.398Z,94362.78
2022-09-16T18:59:21.493Z,94368.25
2022-09-16T19:01:50.640Z,94369.88
2022-09-16T19:04:19.802Z,94366.31
2022-09-16T19:06:48.982Z,94370.97
2022-09-16T19:09:18.198Z,94373.69
2022-09-16T19:11:45.972Z,94373.13
2022-09-16T19:14:15.906Z,94369.84
2022-09-16T19:16:44.962Z,94384.06
2022-09-16T19:19:14.462Z,94369.88
2022-09-16T19:21:43.023Z,94375.88
2022-09-16T19:24:14.049Z,94370.44
2022-09-16T19:26:42.423Z,94385.41
2022-09-16T19:29:10.813Z,94376.69
2022-09-16T19:31:40.915Z,94373.69
2022-09-16T19:34:08.573Z,94375.59
2022-09-16T19:36:36.783Z,94372.03
2022-09-16T19:39:04.839Z,94378.34
2022-09-16T19:41:33.930Z,94368.25
2022-09-16T19:44:02.831Z,94380.75
2022-09-16T19:46:33.705Z,94378.59
2022-09-16T19:49:03.050Z,94375.31
2022-09-16T19:51:31.196Z,94366.59
2022-09-16T19:54:00.687Z,94356.25
2022-09-16T19:56:29.771Z,94370.72
2022-09-16T19:58:57.826Z,94376.69
2022-09-16T20:01:27.135Z,94384.88
2022-09-16T20:03:55.441Z,94385.94
2022-09-16T20:06:26.132Z,94392.78
2022-09-16T20:08:55.523Z,94392.50
2022-09-16T20:11:24.679Z,94384.88
2022-09-16T20:13:54.304Z,94386.22
2022-09-16T20:16:23.665Z,94387.88
2022-09-16T20:18:51.963Z,94384.06
2022-09-16T20:21:22.462Z,94392.25
2022-09-16T20:23:52.014Z,94393.88
2022-09-16T20:26:20.701Z,94399.31
2022-09-16T20:28:50.909Z,94396.59
2022-09-16T20:31:20.529Z,94398.78
2022-09-16T20:33:48.346Z,94396.59
2022-09-16T20:36:18.083Z,94396.59
2022-09-16T20:38:46.036Z,94397.16
2022-09-16T20:41:17.703Z,94395.25
2022-09-16T20:43:46.298Z,94383.25
2022-09-16T20:46:16.342Z,94378.91
2022-09-16T20:48:44.361Z,94393.06
2022-09-16T20:51:13.579Z,94386.78
2022-09-16T20:53:41.880Z,94387.88
2022-09-16T20:56:12.365Z,94391.97
2022-09-16T20:58:41.660Z,94405.84
2022-09-16T21:01:12.586Z,94402.00
2022-09-16T21:03:40.798Z,94402.81
2022-09-16T21:06:10.514Z,94405.50
2022-09-16T21:08:38.110Z,94405.22
2022-09-16T21:11:07.621Z,94406.06
2022-09-16T21:13:35.892Z,94410.69
2022-09-16T21:16:04.977Z,94406.88
2022-09-16T21:18:32.582Z,94425.44
2022-09-16T21:21:01.546Z,94422.72
2022-09-16T21:23:29.844Z,94416.41
2022-09-16T21:26:03.197Z,94419.13
2022-09-16T21:28:31.144Z,94412.84
2022-09-16T21:31:01.345Z,94404.94
2022-09-16T21:33:30.910Z,94422.09
2022-09-16T21:35:58.597Z,94415.03
2022-09-16T21:38:28.109Z,94414.19
2022-09-16T21:40:57.004Z,94418.31
2022-09-16T21:43:25.862Z,94423.50
2022-09-16T21:45:53.670Z,94414.50
2022-09-16T21:48:21.371Z,94412.34
2022-09-16T21:50:50.693Z,94409.31
2022-09-16T21:53:18.283Z,94415.84
2022-09-16T21:55:45.865Z,94413.38
2022-09-16T21:58:13.736Z,94413.38
2022-09-16T22:00:41.352Z,94412.56
2022-09-16T22:03:09.197Z,94407.66
2022-09-16T22:05:37.057Z,94412.31
2022-09-16T22:08:06.016Z,94419.38
2022-09-16T22:10:33.582Z,94420.47
2022-09-16T22:13:01.204Z,94426.75
2022-09-16T22:15:28.772Z,94418.56
2022-09-16T22:17:56.419Z,94411.75
2022-09-16T22:20:24.699Z,94416.06
2022-09-16T22:22:52.419Z,94406.53
2022-09-16T22:25:21.370Z,94406.53
2022-09-16T22:27:48.944Z,94409.53
2022-09-16T22:30:16.643Z,94406.81
2022-09-16T22:32:44.256Z,94398.63
2022-09-16T22:35:11.935Z,94412.81
2022-09-16T22:37:39.575Z,94404.34
2022-09-16T22:40:08.146Z,94399.16
2022-09-16T22:42:37.216Z,94401.03
2022-09-16T22:45:05.297Z,94399.41
2022-09-16T22:47:32.891Z,94398.88
2022-09-16T22:50:00.517Z,94401.25
2022-09-16T22:52:29.844Z,94406.69
2022-09-16T22:54:57.502Z,94397.72
2022-09-16T22:57:25.275Z,94403.41
2022-09-16T22:59:54.260Z,94395.75
2022-09-16T23:02:22.027Z,94398.50
2022-09-16T23:04:49.707Z,94393.03
2022-09-16T23:07:17.336Z,94400.13
2022-09-16T23:09:45.051Z,94385.44
2022-09-16T23:12:17.010Z,94388.97
2022-09-16T23:14:44.773Z,94404.47
2022-09-16T23:17:13.820Z,94400.38
2022-09-16T23:19:41.416Z,94409.59
2022-09-16T23:22:09.007Z,94407.47
2022-09-16T23:24:36.601Z,94399.56
2022-09-16T23:27:04.679Z,94402.53
2022-09-16T23:29:32.256Z,94399.53
2022-09-16T23:32:02.659Z,94398.63
2022-09-16T23:34:31.606Z,94405.47
2022-09-16T23:36:59.207Z,94403.00
2022-09-16T23:39:26.987Z,94401.03
2022-09-16T23:41:54.564Z,94398.06
2022-09-16T23:44:22.526Z,94406.41
2022-09-16T23:46:50.198Z,94400.38
2022-09-16T23:49:20.259Z,94401.75
2022-09-16T23:51:49.305Z,94397.34
2022-09-16T23:54:17.517Z,94395.97
2022-09-16T23:56:45.139Z,94388.25
2022-09-16T23:59:12.809Z,94388.50
